
Distance (Route):
Temperature : -14.8°C
Humidity : 0%
Pressure : 0hPa| Receiver | Date | Latitude | Longitude | Direction | Speed | Altitude | Climb | Temperature | Humidity | Pressure | Voltage | Killtimer | Uptime | BKT | XDATA |
|---|---|---|---|---|---|---|---|---|---|---|---|---|---|---|---|
| LZ4TU-5 | 2026-09-02 13:00:57 | 42.75897 | 24.14697 | 88° | 71km/h | 6707m | -23.3m/s | -14.8°C | 0% | 0hPa | 0V | 00:00:00 | 00:00:00 | 00:00:00 | |
| LZ4TU-5 | 2026-09-02 13:00:53 | 42.75891 | 24.14603 | 87° | 66km/h | 6799m | -22.7m/s | -15.6°C | 0% | 0hPa | 0V | 00:00:00 | 00:00:00 | 00:00:00 | |
| LZ3DJ-16 | 2026-09-02 12:58:21 | 42.75718 | 24.10646 | 74° | 99km/h | 10756m | -27.8m/s | -46.2°C | 26.4% | 0hPa | 0V | 08:24:00 | 00:00:00 | 00:00:00 | |
| LZ3DJ-16 | 2026-09-02 12:57:44 | 42.75464 | 24.09475 | 72° | 100km/h | 11783m | -29.4m/s | -51.6°C | 17.5% | 0hPa | 0V | 08:25:00 | 00:00:00 | 00:00:00 | |
| LZ3DJ-16 | 2026-09-02 12:57:24 | 42.75272 | 24.08776 | 73° | 108km/h | 12415m | -30.7m/s | -54.5°C | 13.1% | 0hPa | 0V | 08:25:00 | 00:00:00 | 00:00:00 | |
| LZ3DJ-16 | 2026-09-02 12:57:04 | 42.75098 | 24.08092 | 74° | 106km/h | 13042m | -33.1m/s | -57.1°C | 9.1% | 0hPa | 0V | 08:25:00 | 00:00:00 | 00:00:00 | |
| LZ3DJ-16 | 2026-09-02 12:56:43 | 42.74949 | 24.07369 | 75° | 97km/h | 13710m | -33.5m/s | -58.0°C | 5.5% | 0hPa | 0V | 08:26:00 | 00:00:00 | 00:00:00 | |
| LZ3DJ-16 | 2026-09-02 12:56:22 | 42.74838 | 24.06697 | 80° | 95km/h | 14428m | -35.3m/s | -56.3°C | 3.2% | 0hPa | 0V | 08:26:00 | 00:00:00 | 00:00:00 | |
| LZ3DJ-16 | 2026-09-02 12:56:02 | 42.74784 | 24.06126 | 82° | 77km/h | 15137m | -35.9m/s | -59.2°C | 3.2% | 0hPa | 0V | 08:26:00 | 00:00:00 | 00:00:00 | |
| LZ3DJ-16 | 2026-09-02 12:55:41 | 42.74688 | 24.05672 | 71° | 64km/h | 15883m | -35.0m/s | -61.3°C | 3.3% | 0hPa | 0V | 08:26:00 | 00:00:00 | 00:00:00 | |
| LZ3DJ-16 | 2026-09-02 12:55:20 | 42.74616 | 24.05272 | 70° | 57km/h | 16655m | -40.6m/s | -59.1°C | 2.5% | 0hPa | 0V | 00:00:00 | 00:00:00 | 00:00:00 | |
| LZ3DJ-16 | 2026-09-02 12:55:00 | 42.74495 | 24.04878 | 84° | 51km/h | 17496m | -42.2m/s | -56.6°C | 1.9% | 0hPa | 0V | 00:00:00 | 00:00:00 | 00:00:00 | |
| LZ3DJ-16 | 2026-09-02 12:54:39 | 42.74506 | 24.04633 | 112° | 40km/h | 18368m | -44.5m/s | -58.3°C | 2.1% | 0hPa | 0V | 00:00:00 | 00:00:00 | 00:00:00 | |
| LZ3DJ-16 | 2026-09-02 12:54:18 | 42.74504 | 24.04509 | 48° | 18km/h | 19331m | -46.3m/s | -56.9°C | 1.9% | 0hPa | 0V | 08:28:00 | 00:00:00 | 00:00:00 | |
| LZ3DJ-16 | 2026-09-02 12:53:57 | 42.74458 | 24.04477 | 37° | 13km/h | 20330m | -49.6m/s | -55.9°C | 1.8% | 0hPa | 0V | 08:28:00 | 00:00:00 | 00:00:00 | |
| LZ3DJ-16 | 2026-09-02 12:53:36 | 42.74410 | 24.04429 | 52° | 13km/h | 21424m | -55.0m/s | -55.9°C | 1.9% | 0hPa | 0V | 08:29:00 | 00:00:00 | 00:00:00 | |
| LZ3DJ-16 | 2026-09-02 12:53:15 | 42.74380 | 24.04367 | 99° | 9km/h | 22626m | -63.0m/s | -52.3°C | 1.5% | 0hPa | 0V | 08:29:00 | 00:00:00 | 00:00:00 | |
| LZ3DJ-16 | 2026-09-02 12:52:55 | 42.74389 | 24.04371 | 13° | 2km/h | 23866m | -68.1m/s | -51.4°C | 1.5% | 0hPa | 0V | 08:29:00 | 00:00:00 | 00:00:00 | |
| LZ3DJ-16 | 2026-09-02 12:52:34 | 42.74390 | 24.04350 | 160° | 5km/h | 25233m | -74.2m/s | -47.8°C | 1.3% | 0hPa | 0V | 00:00:00 | 00:00:00 | 00:00:00 | |
| LZ3DJ-16 | 2026-09-02 12:52:14 | 42.74402 | 24.04383 | 330° | 7km/h | 26906m | -80.7m/s | -45.2°C | 1.0% | 0hPa | 0V | 00:00:00 | 00:00:00 | 00:00:00 | |
| LZ3DJ-16 | 2026-09-02 12:51:54 | 42.74403 | 24.04399 | 219° | 7km/h | 28273m | -37.2m/s | -44.9°C | 1.0% | 0hPa | 0V | 00:00:00 | 00:00:00 | 00:00:00 | |
| LZ3DJ-16 | 2026-09-02 12:51:34 | 42.74406 | 24.04417 | 188° | 4km/h | 28261m | 6.4m/s | -45.0°C | 1.0% | 0hPa | 0V | 00:00:00 | 00:00:00 | 00:00:00 | |
| LZ4TU-5 | 2026-09-02 12:51:22 | 42.74398 | 24.04422 | 4° | 9km/h | 28185m | 6.9m/s | -45.0°C | 0% | 0hPa | 0V | 00:00:00 | 00:00:00 | 00:00:00 | |
| LZ4TU-5 | 2026-09-02 12:51:18 | 42.74387 | 24.04419 | 32° | 11km/h | 28159m | 5.9m/s | -45.1°C | 0% | 0hPa | 0V | 00:00:00 | 00:00:00 | 00:00:00 | |
| LZ3DJ-16 | 2026-09-02 12:51:14 | 42.74377 | 24.04418 | 338° | 9km/h | 28134m | 6.2m/s | -44.8°C | 1.0% | 0hPa | 0V | 00:00:00 | 00:00:00 | 00:00:00 | |
| LZ3DJ-16 | 2026-09-02 12:50:53 | 42.74317 | 24.04460 | 308° | 9km/h | 28002m | 5.9m/s | -45.3°C | 1.0% | 0hPa | 0V | 00:00:00 | 00:00:00 | 00:00:00 | |
| LZ3DJ-16 | 2026-09-02 12:50:32 | 42.74284 | 24.04561 | 259° | 16km/h | 27871m | 7.2m/s | -45.8°C | 1.0% | 0hPa | 0V | 00:00:00 | 00:00:00 | 00:00:00 | |
| LZ3DJ-16 | 2026-09-02 12:49:50 | 42.74326 | 24.04634 | 285° | 11km/h | 27612m | 7.1m/s | -47.1°C | 1.1% | 0hPa | 0V | 00:00:00 | 00:00:00 | 00:00:00 | |
| LZ3DJ-16 | 2026-09-02 12:49:30 | 42.74323 | 24.04618 | 13° | 9km/h | 27487m | 4.8m/s | -47.5°C | 1.1% | 0hPa | 0V | 00:00:00 | 00:00:00 | 00:00:00 | |
| LZ3DJ-16 | 2026-09-02 12:49:09 | 42.74282 | 24.04589 | 90° | 13km/h | 27351m | 5.5m/s | -48.0°C | 1.2% | 0hPa | 0V | 00:00:00 | 00:00:00 | 00:00:00 | |
| LZ3DJ-16 | 2026-09-02 12:48:48 | 42.74243 | 24.04556 | 31° | 11km/h | 27224m | 5.8m/s | -48.0°C | 1.2% | 0hPa | 0V | 00:00:00 | 00:00:00 | 00:00:00 | |
| LZ3DJ-16 | 2026-09-02 12:48:28 | 42.74183 | 24.04584 | 331° | 22km/h | 27091m | 5.2m/s | -47.6°C | 1.2% | 0hPa | 0V | 00:00:00 | 00:00:00 | 00:00:00 | |
| LZ3DJ-16 | 2026-09-02 12:48:08 | 42.74105 | 24.04681 | 306° | 18km/h | 26954m | 7.2m/s | -47.5°C | 1.2% | 0hPa | 0V | 00:00:00 | 00:00:00 | 00:00:00 | |
| LZ3DJ-16 | 2026-09-02 12:47:48 | 42.74036 | 24.04775 | 329° | 26km/h | 26822m | 6.5m/s | -46.9°C | 1.1% | 0hPa | 0V | 00:00:00 | 00:00:00 | 00:00:00 | |
| LZ3DJ-16 | 2026-09-02 12:47:27 | 42.73987 | 24.04913 | 272° | 27km/h | 26688m | 6.4m/s | -46.4°C | 1.1% | 0hPa | 0V | 00:00:00 | 00:00:00 | 00:00:00 | |
| LZ3DJ-16 | 2026-09-02 12:47:07 | 42.73981 | 24.05088 | 273° | 20km/h | 26567m | 6.0m/s | -46.3°C | 1.1% | 0hPa | 0V | 00:00:00 | 00:00:00 | 00:00:00 | |
| LZ3DJ-16 | 2026-09-02 12:46:46 | 42.74029 | 24.05256 | 238° | 31km/h | 26442m | 5.2m/s | -45.8°C | 1.1% | 0hPa | 0V | 00:00:00 | 00:00:00 | 00:00:00 | |
| LZ3DJ-16 | 2026-09-02 12:46:25 | 42.74105 | 24.05341 | 187° | 9km/h | 26323m | 6.6m/s | -46.6°C | 1.1% | 0hPa | 0V | 00:00:00 | 00:00:00 | 00:00:00 | |
| LZ3DJ-16 | 2026-09-02 12:46:05 | 42.74139 | 24.05346 | 197° | 5km/h | 26203m | 6.9m/s | -46.9°C | 1.1% | 0hPa | 0V | 00:00:00 | 00:00:00 | 00:00:00 | |
| LZ3DJ-16 | 2026-09-02 12:45:44 | 42.74180 | 24.05364 | 246° | 11km/h | 26073m | 7.2m/s | -47.2°C | 1.1% | 0hPa | 0V | 00:00:00 | 00:00:00 | 00:00:00 | |
| LZ3DJ-16 | 2026-09-02 12:45:24 | 42.74250 | 24.05366 | 152° | 11km/h | 25952m | 5.2m/s | -47.7°C | 1.2% | 0hPa | 0V | 00:00:00 | 00:00:00 | 00:00:00 | |
| LZ3DJ-16 | 2026-09-02 12:44:43 | 42.74364 | 24.05122 | 99° | 35km/h | 25698m | 6.3m/s | -48.9°C | 1.2% | 0hPa | 0V | 00:00:00 | 00:00:00 | 00:00:00 | |
| LZ3DJ-16 | 2026-09-02 12:44:22 | 42.74353 | 24.04948 | 51° | 20km/h | 25567m | 7.9m/s | -49.5°C | 1.3% | 0hPa | 0V | 00:00:00 | 00:00:00 | 00:00:00 | |
| LZ3DJ-16 | 2026-09-02 12:44:02 | 42.74296 | 24.04912 | 324° | 15km/h | 25428m | 6.8m/s | -49.7°C | 1.3% | 0hPa | 0V | 00:00:00 | 00:00:00 | 00:00:00 | |
| LZ3DJ-16 | 2026-09-02 12:43:42 | 42.74277 | 24.04975 | 252° | 11km/h | 25299m | 8.1m/s | -49.3°C | 1.2% | 0hPa | 0V | 00:00:00 | 00:00:00 | 00:00:00 | |
| LZ3DJ-16 | 2026-09-02 12:43:21 | 42.74329 | 24.05049 | 215° | 13km/h | 25163m | 6.0m/s | -49.5°C | 1.3% | 0hPa | 0V | 00:00:00 | 00:00:00 | 00:00:00 | |
| LZ3DJ-16 | 2026-09-02 12:43:00 | 42.74349 | 24.05081 | 150° | 9km/h | 25035m | 5.3m/s | -49.4°C | 1.3% | 0hPa | 0V | 00:00:00 | 00:00:00 | 00:00:00 | |
| LZ3DJ-16 | 2026-09-02 12:42:39 | 42.74385 | 24.05083 | 214° | 7km/h | 24906m | 6.9m/s | -49.5°C | 1.3% | 0hPa | 0V | 00:00:00 | 00:00:00 | 00:00:00 | |
| LZ3DJ-16 | 2026-09-02 12:42:19 | 42.74408 | 24.05059 | 77° | 13km/h | 24785m | 7.2m/s | -49.8°C | 1.3% | 0hPa | 0V | 00:00:00 | 00:00:00 | 00:00:00 | |
| LZ3DJ-16 | 2026-09-02 12:41:58 | 42.74419 | 24.05005 | 146° | 15km/h | 24662m | 5.1m/s | -50.3°C | 1.3% | 0hPa | 0V | 00:00:00 | 00:00:00 | 00:00:00 | |
| LZ3DJ-16 | 2026-09-02 12:41:37 | 42.74405 | 24.04925 | 38° | 5km/h | 24540m | 5.3m/s | -51.2°C | 1.4% | 0hPa | 0V | 00:00:00 | 00:00:00 | 00:00:00 | |
| LZ3DJ-16 | 2026-09-02 12:41:17 | 42.74366 | 24.04904 | 356° | 16km/h | 24419m | 6.8m/s | -51.0°C | 1.4% | 0hPa | 0V | 00:00:00 | 00:00:00 | 00:00:00 | |
| LZ3DJ-16 | 2026-09-02 12:40:35 | 42.74255 | 24.04839 | 16° | 11km/h | 24166m | 5.8m/s | -51.1°C | 1.3% | 0hPa | 0V | 00:00:00 | 00:00:00 | 00:00:00 | |
| LZ3DJ-16 | 2026-09-02 12:40:15 | 42.74169 | 24.04843 | 351° | 24km/h | 24044m | 5.3m/s | -51.5°C | 1.4% | 0hPa | 0V | 00:00:00 | 00:00:00 | 00:00:00 | |
| LZ3DJ-16 | 2026-09-02 12:39:54 | 42.74095 | 24.04893 | 309° | 13km/h | 23917m | 5.7m/s | -52.1°C | 1.4% | 0hPa | 0V | 00:00:00 | 00:00:00 | 00:00:00 | |
| LZ3DJ-16 | 2026-09-02 12:39:34 | 42.74082 | 24.04987 | 239° | 13km/h | 23792m | 6.7m/s | -52.4°C | 1.5% | 0hPa | 0V | 00:00:00 | 00:00:00 | 00:00:00 | |
| LZ3DJ-16 | 2026-09-02 12:39:13 | 42.74078 | 24.05040 | 0° | 0km/h | 23662m | 4.6m/s | -52.3°C | 1.5% | 0hPa | 0V | 00:00:00 | 00:00:00 | 00:00:00 | |
| LZ3DJ-16 | 2026-09-02 12:38:53 | 42.74055 | 24.05121 | 269° | 20km/h | 23538m | 7.7m/s | -51.9°C | 1.4% | 0hPa | 0V | 00:00:00 | 00:00:00 | 00:00:00 | |
| LZ3DJ-16 | 2026-09-02 12:38:32 | 42.74084 | 24.05237 | 227° | 16km/h | 23411m | 5.3m/s | -52.4°C | 1.4% | 0hPa | 0V | 00:00:00 | 00:00:00 | 00:00:00 | |
| LZ3DJ-16 | 2026-09-02 12:38:12 | 42.74117 | 24.05268 | 93° | 16km/h | 23291m | 6.9m/s | -53.2°C | 1.5% | 0hPa | 0V | 00:00:00 | 00:00:00 | 00:00:00 | |
| LZ3DJ-16 | 2026-09-02 12:37:52 | 42.74126 | 24.05217 | 150° | 5km/h | 23172m | 5.5m/s | -53.4°C | 1.5% | 0hPa | 0V | 00:00:00 | 00:00:00 | 00:00:00 | |
| LZ3DJ-16 | 2026-09-02 12:37:31 | 42.74149 | 24.05203 | 164° | 9km/h | 23046m | 4.3m/s | -53.1°C | 1.5% | 0hPa | 0V | 00:00:00 | 00:00:00 | 00:00:00 | |
| LZ3DJ-16 | 2026-09-02 12:37:10 | 42.74207 | 24.05149 | 132° | 18km/h | 22923m | 5.7m/s | -53.4°C | 1.5% | 0hPa | 0V | 00:00:00 | 00:00:00 | 00:00:00 | |
| LZ3DJ-16 | 2026-09-02 12:36:50 | 42.74219 | 24.05073 | 55° | 13km/h | 22807m | 6.1m/s | -53.1°C | 1.5% | 0hPa | 0V | 00:00:00 | 00:00:00 | 00:00:00 | |
| LZ3DJ-16 | 2026-09-02 12:36:28 | 42.74210 | 24.04992 | 92° | 11km/h | 22685m | 4.8m/s | -53.4°C | 1.5% | 0hPa | 0V | 00:00:00 | 00:00:00 | 00:00:00 | |
| LZ3DJ-16 | 2026-09-02 12:36:08 | 42.74180 | 24.04936 | 44° | 7km/h | 22563m | 6.0m/s | -54.1°C | 1.6% | 0hPa | 0V | 00:00:00 | 00:00:00 | 00:00:00 | |
| LZ3DJ-16 | 2026-09-02 12:35:48 | 42.74153 | 24.04888 | 33° | 7km/h | 22447m | 5.8m/s | -54.0°C | 1.6% | 0hPa | 0V | 00:00:00 | 00:00:00 | 00:00:00 | |
| LZ3DJ-16 | 2026-09-02 12:35:27 | 42.74115 | 24.04819 | 70° | 18km/h | 22321m | 6.8m/s | -54.0°C | 1.6% | 0hPa | 0V | 00:00:00 | 00:00:00 | 00:00:00 | |
| LZ3DJ-16 | 2026-09-02 12:35:06 | 42.74055 | 24.04720 | 27° | 24km/h | 22196m | 6.6m/s | -54.1°C | 1.6% | 0hPa | 0V | 00:00:00 | 00:00:00 | 00:00:00 | |
| LZ3DJ-16 | 2026-09-02 12:34:45 | 42.73961 | 24.04646 | 30° | 7km/h | 22070m | 5.5m/s | -53.9°C | 1.6% | 0hPa | 0V | 00:00:00 | 00:00:00 | 00:00:00 | |
| LZ3DJ-16 | 2026-09-02 12:34:25 | 42.73921 | 24.04616 | 256° | 4km/h | 21941m | 7.9m/s | -54.6°C | 1.6% | 0hPa | 0V | 00:00:00 | 00:00:00 | 00:00:00 | |
| LZ3DJ-16 | 2026-09-02 12:34:04 | 42.73919 | 24.04578 | 85° | 18km/h | 21804m | 6.6m/s | -55.9°C | 1.8% | 0hPa | 0V | 00:00:00 | 00:00:00 | 00:00:00 | |
| LZ3DJ-16 | 2026-09-02 12:33:43 | 42.73891 | 24.04511 | 46° | 4km/h | 21668m | 6.1m/s | -56.1°C | 1.8% | 0hPa | 0V | 00:00:00 | 00:00:00 | 00:00:00 | |
| LZ3DJ-16 | 2026-09-02 12:33:22 | 42.73861 | 24.04447 | 57° | 11km/h | 21534m | 5.4m/s | -56.1°C | 1.7% | 0hPa | 0V | 00:00:00 | 00:00:00 | 00:00:00 | |
| LZ3DJ-16 | 2026-09-02 12:33:02 | 42.73854 | 24.04395 | 40° | 9km/h | 21409m | 6.3m/s | -56.7°C | 1.8% | 0hPa | 0V | 00:00:00 | 00:00:00 | 00:00:00 | |
| LZ3DJ-16 | 2026-09-02 12:32:41 | 42.73796 | 24.04383 | 333° | 15km/h | 21281m | 6.6m/s | -56.4°C | 1.8% | 0hPa | 0V | 00:00:00 | 00:00:00 | 00:00:00 | |
| LZ3DJ-16 | 2026-09-02 12:32:20 | 42.73749 | 24.04421 | 359° | 4km/h | 21154m | 6.5m/s | -55.9°C | 1.7% | 0hPa | 0V | 00:00:00 | 00:00:00 | 00:00:00 | |
| LZ3DJ-16 | 2026-09-02 12:31:59 | 42.73759 | 24.04392 | 101° | 13km/h | 21024m | 6.6m/s | -56.4°C | 1.8% | 0hPa | 0V | 00:00:00 | 00:00:00 | 00:00:00 | |
| LZ3DJ-16 | 2026-09-02 12:31:38 | 42.73758 | 24.04288 | 64° | 13km/h | 20894m | 7.3m/s | -56.6°C | 1.8% | 0hPa | 0V | 00:00:00 | 00:00:00 | 00:00:00 | |
| LZ3DJ-16 | 2026-09-02 12:31:17 | 42.73714 | 24.04195 | 64° | 16km/h | 20762m | 8.4m/s | -56.7°C | 1.9% | 0hPa | 0V | 00:00:00 | 00:00:00 | 00:00:00 | |
| LZ3DJ-16 | 2026-09-02 12:30:57 | 42.73681 | 24.04108 | 71° | 15km/h | 20634m | 5.0m/s | -56.2°C | 1.8% | 0hPa | 0V | 00:00:00 | 00:00:00 | 00:00:00 | |
| LZ3DJ-16 | 2026-09-02 12:30:36 | 42.73665 | 24.03975 | 77° | 18km/h | 20500m | 4.7m/s | -56.5°C | 1.8% | 0hPa | 0V | 00:00:00 | 00:00:00 | 00:00:00 | |
| LZ3DJ-16 | 2026-09-02 12:29:55 | 42.73564 | 24.03871 | 10° | 13km/h | 20241m | 5.7m/s | -55.6°C | 1.8% | 0hPa | 0V | 00:00:00 | 00:00:00 | 00:00:00 | |
| LZ3DJ-16 | 2026-09-02 12:29:34 | 42.73510 | 24.03900 | 283° | 13km/h | 20110m | 5.2m/s | -55.2°C | 1.7% | 0hPa | 0V | 00:00:00 | 00:00:00 | 00:00:00 | |
| LZ3DJ-16 | 2026-09-02 12:29:14 | 42.73497 | 24.03982 | 290° | 16km/h | 19977m | 4.8m/s | -54.7°C | 1.7% | 0hPa | 0V | 00:00:00 | 00:00:00 | 00:00:00 | |
| LZ3DJ-16 | 2026-09-02 12:28:53 | 42.73490 | 24.04040 | 96° | 5km/h | 19842m | 7.9m/s | -55.1°C | 1.7% | 0hPa | 0V | 00:00:00 | 00:00:00 | 00:00:00 | |
| LZ3DJ-16 | 2026-09-02 12:28:32 | 42.73487 | 24.03994 | 73° | 13km/h | 19716m | 8.6m/s | -55.7°C | 1.7% | 0hPa | 0V | 00:00:00 | 00:00:00 | 00:00:00 | |
| LZ3DJ-16 | 2026-09-02 12:28:12 | 42.73445 | 24.03867 | 57° | 20km/h | 19583m | 5.4m/s | -56.8°C | 1.8% | 0hPa | 0V | 00:00:00 | 00:00:00 | 00:00:00 | |
| LZ3DJ-16 | 2026-09-02 12:27:52 | 42.73376 | 24.03780 | 40° | 20km/h | 19456m | 6.1m/s | -57.7°C | 2.0% | 0hPa | 0V | 00:00:00 | 00:00:00 | 00:00:00 | |
| LZ3DJ-16 | 2026-09-02 12:27:31 | 42.73289 | 24.03730 | 13° | 11km/h | 19323m | 8.5m/s | -57.1°C | 1.9% | 0hPa | 0V | 00:00:00 | 00:00:00 | 00:00:00 | |
| LZ3DJ-16 | 2026-09-02 12:27:11 | 42.73226 | 24.03690 | 16° | 16km/h | 19202m | 7.8m/s | -56.6°C | 1.9% | 0hPa | 0V | 00:00:00 | 00:00:00 | 00:00:00 | |
| LZ3DJ-16 | 2026-09-02 12:26:50 | 42.73153 | 24.03650 | 34° | 5km/h | 19072m | 6.2m/s | -57.3°C | 2.0% | 0hPa | 0V | 00:00:00 | 00:00:00 | 00:00:00 | |
| LZ3DJ-16 | 2026-09-02 12:26:30 | 42.73121 | 24.03619 | 63° | 9km/h | 18951m | 7.3m/s | -57.2°C | 2.0% | 0hPa | 0V | 00:00:00 | 00:00:00 | 00:00:00 | |
| LZ3DJ-16 | 2026-09-02 12:26:09 | 42.73156 | 24.03553 | 148° | 16km/h | 18826m | 4.5m/s | -57.1°C | 2.1% | 0hPa | 0V | 00:00:00 | 00:00:00 | 00:00:00 | |
| LZ3DJ-16 | 2026-09-02 12:25:48 | 42.73249 | 24.03457 | 140° | 26km/h | 18702m | 5.6m/s | -56.5°C | 1.9% | 0hPa | 0V | 00:00:00 | 00:00:00 | 00:00:00 | |
| LZ3DJ-16 | 2026-09-02 12:25:27 | 42.73342 | 24.03308 | 127° | 38km/h | 18577m | 6.4m/s | -57.4°C | 1.9% | 0hPa | 0V | 00:00:00 | 00:00:00 | 00:00:00 | |
| LZ3DJ-16 | 2026-09-02 12:25:07 | 42.73429 | 24.03045 | 104° | 44km/h | 18458m | 5.3m/s | -59.6°C | 2.3% | 0hPa | 0V | 00:00:00 | 00:00:00 | 00:00:00 | |
| LZ3DJ-16 | 2026-09-02 12:24:25 | 42.73459 | 24.02556 | 76° | 20km/h | 18206m | 5.0m/s | -59.2°C | 2.3% | 0hPa | 0V | 00:00:00 | 00:00:00 | 00:00:00 | |
| LZ3DJ-16 | 2026-09-02 12:24:05 | 42.73406 | 24.02419 | 68° | 24km/h | 18083m | 4.0m/s | -58.6°C | 2.2% | 0hPa | 0V | 00:00:00 | 00:00:00 | 00:00:00 | |
| LZ3DJ-16 | 2026-09-02 12:23:45 | 42.73375 | 24.02273 | 93° | 24km/h | 17964m | 6.7m/s | -58.1°C | 2.1% | 0hPa | 0V | 00:00:00 | 00:00:00 | 00:00:00 | |
| LZ3DJ-16 | 2026-09-02 12:23:24 | 42.73410 | 24.02078 | 98° | 31km/h | 17847m | 4.7m/s | -58.3°C | 2.2% | 0hPa | 0V | 00:00:00 | 00:00:00 | 00:00:00 | |
| LZ3DJ-16 | 2026-09-02 12:23:04 | 42.73421 | 24.01801 | 95° | 42km/h | 17730m | 5.5m/s | -57.4°C | 2.1% | 0hPa | 0V | 00:00:00 | 00:00:00 | 00:00:00 | |
| LZ3DJ-16 | 2026-09-02 12:22:43 | 42.73400 | 24.01462 | 83° | 47km/h | 17616m | 3.7m/s | -56.9°C | 2.0% | 0hPa | 0V | 00:00:00 | 00:00:00 | 00:00:00 | |
| LZ3DJ-16 | 2026-09-02 12:22:22 | 42.73386 | 24.01035 | 80° | 66km/h | 17503m | 5.1m/s | -57.3°C | 2.2% | 0hPa | 0V | 00:00:00 | 00:00:00 | 00:00:00 | |
| LZ3DJ-16 | 2026-09-02 12:22:02 | 42.73299 | 24.00595 | 74° | 68km/h | 17395m | 6.2m/s | -57.8°C | 2.3% | 0hPa | 0V | 00:00:00 | 00:00:00 | 00:00:00 | |
| LZ3DJ-16 | 2026-09-02 12:21:41 | 42.73123 | 24.00196 | 53° | 58km/h | 17273m | 5.2m/s | -59.1°C | 2.5% | 0hPa | 0V | 00:00:00 | 00:00:00 | 00:00:00 | |
| LZ3DJ-16 | 2026-09-02 12:21:20 | 42.72944 | 23.99876 | 66° | 53km/h | 17160m | 4.2m/s | -60.9°C | 2.9% | 0hPa | 0V | 00:00:00 | 00:00:00 | 00:00:00 | |
| LZ3DJ-16 | 2026-09-02 12:21:00 | 42.72826 | 23.99514 | 55° | 58km/h | 17048m | 5.0m/s | -61.1°C | 3.0% | 0hPa | 0V | 00:00:00 | 00:00:00 | 00:00:00 | |
| LZ3DJ-16 | 2026-09-02 12:20:40 | 42.72707 | 23.99202 | 69° | 46km/h | 16943m | 6.3m/s | -60.9°C | 3.1% | 0hPa | 0V | 00:00:00 | 00:00:00 | 00:00:00 | |
| LZ3DJ-16 | 2026-09-02 12:20:19 | 42.72638 | 23.98885 | 80° | 44km/h | 16831m | 5.7m/s | -60.0°C | 3.0% | 0hPa | 0V | 00:00:00 | 00:00:00 | 00:00:00 | |
| LZ3DJ-16 | 2026-09-02 12:19:58 | 42.72558 | 23.98555 | 69° | 46km/h | 16720m | 4.5m/s | -58.9°C | 2.8% | 0hPa | 0V | 00:00:00 | 00:00:00 | 00:00:00 | |
| LZ3DJ-16 | 2026-09-02 12:19:38 | 42.72484 | 23.98220 | 76° | 57km/h | 16614m | 5.6m/s | -59.2°C | 3.0% | 0hPa | 0V | 00:00:00 | 00:00:00 | 00:00:00 | |
| LZ3DJ-16 | 2026-09-02 12:19:17 | 42.72431 | 23.97819 | 89° | 60km/h | 16512m | 3.6m/s | -60.2°C | 3.4% | 0hPa | 0V | 00:00:00 | 00:00:00 | 00:00:00 | |
| LZ3DJ-16 | 2026-09-02 12:18:57 | 42.72396 | 23.97405 | 79° | 58km/h | 16410m | 5.0m/s | -60.5°C | 3.5% | 0hPa | 0V | 00:00:00 | 00:00:00 | 00:00:00 | |
| LZ3DJ-16 | 2026-09-02 12:18:36 | 42.72338 | 23.97017 | 75° | 57km/h | 16311m | 6.2m/s | -60.6°C | 3.6% | 0hPa | 0V | 00:00:00 | 00:00:00 | 00:00:00 | |
| LZ3DJ-16 | 2026-09-02 12:18:15 | 42.72244 | 23.96612 | 76° | 68km/h | 16210m | 5.9m/s | -60.9°C | 3.8% | 0hPa | 0V | 00:00:00 | 00:00:00 | 00:00:00 | |
| LZ3DJ-16 | 2026-09-02 12:17:55 | 42.72186 | 23.96145 | 87° | 69km/h | 16105m | 4.7m/s | -60.9°C | 3.8% | 0hPa | 0V | 00:00:00 | 00:00:00 | 00:00:00 | |
| LZ3DJ-16 | 2026-09-02 12:17:35 | 42.72141 | 23.95650 | 79° | 75km/h | 16005m | 4.3m/s | -61.3°C | 3.9% | 0hPa | 0V | 00:00:00 | 00:00:00 | 00:00:00 | |
| LZ3DJ-16 | 2026-09-02 12:17:14 | 42.72024 | 23.95116 | 72° | 75km/h | 15901m | 4.4m/s | -61.4°C | 4.1% | 0hPa | 0V | 00:00:00 | 00:00:00 | 00:00:00 | |
| LZ3DJ-16 | 2026-09-02 12:16:53 | 42.71886 | 23.94633 | 69° | 68km/h | 15802m | 5.8m/s | -61.0°C | 4.0% | 0hPa | 0V | 00:00:00 | 00:00:00 | 00:00:00 | |
| LZ3DJ-16 | 2026-09-02 12:16:32 | 42.71776 | 23.94152 | 77° | 69km/h | 15701m | 4.7m/s | -60.9°C | 3.9% | 0hPa | 0V | 00:00:00 | 00:00:00 | 00:00:00 | |
| LZ3DJ-16 | 2026-09-02 12:16:12 | 42.71726 | 23.93663 | 84° | 75km/h | 15608m | 5.1m/s | -61.2°C | 4.2% | 0hPa | 0V | 00:00:00 | 00:00:00 | 00:00:00 | |
| LZ3DJ-16 | 2026-09-02 12:15:51 | 42.71655 | 23.93140 | 75° | 68km/h | 15510m | 4.5m/s | -61.2°C | 4.2% | 0hPa | 0V | 00:00:00 | 00:00:00 | 00:00:00 | |
| LZ3DJ-16 | 2026-09-02 12:15:30 | 42.71583 | 23.92647 | 83° | 78km/h | 15410m | 3.2m/s | -60.9°C | 4.1% | 0hPa | 0V | 00:00:00 | 00:00:00 | 00:00:00 | |
| LZ3DJ-16 | 2026-09-02 12:15:09 | 42.71535 | 23.92148 | 84° | 73km/h | 15312m | 3.9m/s | -60.5°C | 4.2% | 0hPa | 0V | 00:00:00 | 00:00:00 | 00:00:00 | |
| LZ3DJ-16 | 2026-09-02 12:14:48 | 42.71472 | 23.91596 | 79° | 84km/h | 15211m | 4.1m/s | -60.1°C | 4.1% | 0hPa | 0V | 00:00:00 | 00:00:00 | 00:00:00 | |
| LZ3DJ-16 | 2026-09-02 12:14:27 | 42.71376 | 23.90976 | 77° | 91km/h | 15112m | 3.5m/s | -59.9°C | 4.0% | 0hPa | 0V | 00:00:00 | 00:00:00 | 00:00:00 | |
| LZ3DJ-16 | 2026-09-02 12:14:06 | 42.71294 | 23.90341 | 82° | 84km/h | 15010m | 4.1m/s | -59.1°C | 3.9% | 0hPa | 0V | 00:00:00 | 00:00:00 | 00:00:00 | |
| LZ3DJ-16 | 2026-09-02 12:13:45 | 42.71242 | 23.89748 | 88° | 84km/h | 14908m | 3.9m/s | -58.8°C | 4.1% | 0hPa | 0V | 00:00:00 | 00:00:00 | 00:00:00 | |
| LZ3DJ-16 | 2026-09-02 12:13:25 | 42.71202 | 23.89188 | 84° | 82km/h | 14810m | 5.2m/s | -58.8°C | 4.2% | 0hPa | 0V | 00:00:00 | 00:00:00 | 00:00:00 | |
| LZ3DJ-16 | 2026-09-02 12:13:04 | 42.71173 | 23.88598 | 86° | 88km/h | 14706m | 5.9m/s | -58.0°C | 4.3% | 0hPa | 0V | 00:00:00 | 00:00:00 | 00:00:00 | |
| LZ3DJ-16 | 2026-09-02 12:12:43 | 42.71109 | 23.87969 | 81° | 91km/h | 14597m | 5.9m/s | -57.4°C | 4.5% | 0hPa | 0V | 00:00:00 | 00:00:00 | 00:00:00 | |
| LZ3DJ-16 | 2026-09-02 12:12:22 | 42.71000 | 23.87320 | 77° | 89km/h | 14488m | 4.7m/s | -58.0°C | 5.3% | 0hPa | 0V | 00:00:00 | 00:00:00 | 00:00:00 | |
| LZ3DJ-16 | 2026-09-02 12:12:01 | 42.70896 | 23.86686 | 78° | 88km/h | 14382m | 4.7m/s | -58.1°C | 5.9% | 0hPa | 0V | 00:00:00 | 00:00:00 | 00:00:00 | |
| LZ3DJ-16 | 2026-09-02 12:11:41 | 42.70798 | 23.86136 | 76° | 75km/h | 14281m | 4.1m/s | -58.3°C | 6.2% | 0hPa | 0V | 00:00:00 | 00:00:00 | 00:00:00 | |
| LZ3DJ-16 | 2026-09-02 12:11:21 | 42.70714 | 23.85595 | 79° | 86km/h | 14177m | 5.4m/s | -57.9°C | 6.2% | 0hPa | 0V | 00:00:00 | 00:00:00 | 00:00:00 | |
| LZ3DJ-16 | 2026-09-02 12:11:00 | 42.70586 | 23.84984 | 74° | 95km/h | 14069m | 5.0m/s | -57.4°C | 6.3% | 0hPa | 0V | 00:00:00 | 00:00:00 | 00:00:00 | |
| LZ3DJ-16 | 2026-09-02 12:10:40 | 42.70416 | 23.84383 | 72° | 97km/h | 13967m | 5.4m/s | -57.7°C | 7.0% | 0hPa | 0V | 00:00:00 | 00:00:00 | 00:00:00 | |
| LZ3DJ-16 | 2026-09-02 12:10:19 | 42.70238 | 23.83763 | 66° | 93km/h | 13860m | 4.6m/s | -58.3°C | 8.2% | 0hPa | 0V | 00:00:00 | 00:00:00 | 00:00:00 | |
| LZ3DJ-16 | 2026-09-02 12:09:59 | 42.70066 | 23.83226 | 70° | 84km/h | 13760m | 4.5m/s | -58.2°C | 9.1% | 0hPa | 0V | 00:00:00 | 00:00:00 | 00:00:00 | |
| LZ3DJ-16 | 2026-09-02 12:09:38 | 42.69913 | 23.82630 | 75° | 89km/h | 13657m | 5.7m/s | -58.7°C | 10.6% | 0hPa | 0V | 00:00:00 | 00:00:00 | 00:00:00 | |
| LZ3DJ-16 | 2026-09-02 12:09:18 | 42.69789 | 23.81996 | 75° | 99km/h | 13556m | 4.4m/s | -58.0°C | 10.8% | 0hPa | 0V | 00:00:00 | 00:00:00 | 00:00:00 | |
| LZ3DJ-16 | 2026-09-02 12:08:57 | 42.69636 | 23.81301 | 75° | 104km/h | 13449m | 4.9m/s | -57.2°C | 11.3% | 0hPa | 0V | 00:00:00 | 00:00:00 | 00:00:00 | |
| LZ3DJ-16 | 2026-09-02 12:08:36 | 42.69457 | 23.80613 | 69° | 100km/h | 13341m | 4.1m/s | -57.8°C | 12.6% | 0hPa | 0V | 00:00:00 | 00:00:00 | 00:00:00 | |
| LZ3DJ-16 | 2026-09-02 12:08:16 | 42.69293 | 23.79956 | 75° | 102km/h | 13244m | 5.1m/s | -57.9°C | 13.0% | 0hPa | 0V | 00:00:00 | 00:00:00 | 00:00:00 | |
| LZ3DJ-16 | 2026-09-02 12:07:56 | 42.69162 | 23.79292 | 74° | 108km/h | 13147m | 3.7m/s | -57.8°C | 13.8% | 0hPa | 0V | 00:00:00 | 00:00:00 | 00:00:00 | |
| LZ3DJ-16 | 2026-09-02 12:07:36 | 42.69012 | 23.78625 | 75° | 106km/h | 13035m | 6.0m/s | -57.2°C | 14.1% | 0hPa | 0V | 00:00:00 | 00:00:00 | 00:00:00 | |
| LZ3DJ-16 | 2026-09-02 12:07:15 | 42.68773 | 23.77953 | 65° | 102km/h | 12902m | 7.2m/s | -56.8°C | 15.1% | 0hPa | 0V | 00:00:00 | 00:00:00 | 00:00:00 | |
| LZ3DJ-16 | 2026-09-02 12:06:54 | 42.68560 | 23.77290 | 71° | 100km/h | 12791m | 4.0m/s | -57.0°C | 18.0% | 0hPa | 0V | 00:00:00 | 00:00:00 | 00:00:00 | |
| LZ3DJ-16 | 2026-09-02 12:06:34 | 42.68400 | 23.76628 | 72° | 100km/h | 12695m | 6.1m/s | -56.4°C | 16.7% | 0hPa | 0V | 00:00:00 | 00:00:00 | 00:00:00 | |
| LZ3DJ-16 | 2026-09-02 12:06:13 | 42.68242 | 23.75918 | 73° | 100km/h | 12594m | 4.6m/s | -55.7°C | 16.7% | 0hPa | 0V | 00:00:00 | 00:00:00 | 00:00:00 | |
| LZ3DJ-16 | 2026-09-02 12:05:53 | 42.68075 | 23.75240 | 71° | 104km/h | 12497m | 4.2m/s | -55.2°C | 16.3% | 0hPa | 0V | 00:00:00 | 00:00:00 | 00:00:00 | |
| LZ3DJ-16 | 2026-09-02 12:05:32 | 42.67897 | 23.74534 | 74° | 100km/h | 12394m | 5.6m/s | -54.7°C | 16.5% | 0hPa | 0V | 00:00:00 | 00:00:00 | 00:00:00 | |
| LZ3DJ-16 | 2026-09-02 12:05:12 | 42.67740 | 23.73873 | 71° | 97km/h | 12295m | 3.8m/s | -54.2°C | 16.4% | 0hPa | 0V | 00:00:00 | 00:00:00 | 00:00:00 | |
| LZ3DJ-16 | 2026-09-02 12:04:52 | 42.67579 | 23.73230 | 73° | 99km/h | 12187m | 3.8m/s | -53.5°C | 15.9% | 0hPa | 0V | 00:00:00 | 00:00:00 | 00:00:00 | |
| LZ3DJ-16 | 2026-09-02 12:04:31 | 42.67399 | 23.72560 | 69° | 95km/h | 12084m | 3.0m/s | -53.1°C | 18.7% | 0hPa | 0V | 00:00:00 | 00:00:00 | 00:00:00 | |
| LZ3DJ-16 | 2026-09-02 12:04:10 | 42.67218 | 23.71906 | 72° | 102km/h | 11979m | 5.4m/s | -52.9°C | 18.3% | 0hPa | 0V | 00:00:00 | 00:00:00 | 00:00:00 | |
| LZ3DJ-16 | 2026-09-02 12:03:50 | 42.67062 | 23.71309 | 73° | 86km/h | 11860m | 6.5m/s | -52.1°C | 18.5% | 0hPa | 0V | 00:00:00 | 00:00:00 | 00:00:00 | |
| LZ3DJ-16 | 2026-09-02 12:03:30 | 42.66908 | 23.70736 | 72° | 89km/h | 11749m | 5.7m/s | -51.5°C | 18.5% | 0hPa | 0V | 00:00:00 | 00:00:00 | 00:00:00 | |
| LZ3DJ-16 | 2026-09-02 12:03:09 | 42.66758 | 23.70112 | 73° | 93km/h | 11625m | 6.8m/s | -51.1°C | 20.1% | 0hPa | 0V | 00:00:00 | 00:00:00 | 00:00:00 | |
| LZ3DJ-16 | 2026-09-02 12:02:49 | 42.66637 | 23.69504 | 78° | 93km/h | 11514m | 5.5m/s | -50.4°C | 21.8% | 0hPa | 0V | 00:00:00 | 00:00:00 | 00:00:00 | |
| LZ3DJ-16 | 2026-09-02 12:02:28 | 42.66524 | 23.68846 | 80° | 84km/h | 11389m | 5.6m/s | -50.0°C | 22.5% | 0hPa | 0V | 00:00:00 | 00:00:00 | 00:00:00 | |
| LZ3DJ-16 | 2026-09-02 12:02:08 | 42.66399 | 23.68225 | 77° | 97km/h | 11269m | 6.5m/s | -49.2°C | 22.8% | 0hPa | 0V | 00:00:00 | 00:00:00 | 00:00:00 | |
| LZ3DJ-16 | 2026-09-02 12:01:47 | 42.66272 | 23.67551 | 77° | 99km/h | 11146m | 5.9m/s | -48.6°C | 28.8% | 0hPa | 0V | 00:00:00 | 00:00:00 | 00:00:00 | |
| LZ3DJ-16 | 2026-09-02 12:01:27 | 42.66146 | 23.66880 | 75° | 110km/h | 11035m | 7.6m/s | -48.0°C | 30.0% | 0hPa | 0V | 00:00:00 | 00:00:00 | 00:00:00 | |
| LZ3DJ-16 | 2026-09-02 12:01:06 | 42.65998 | 23.66157 | 77° | 104km/h | 10917m | 7.3m/s | -47.1°C | 32.4% | 0hPa | 0V | 00:00:00 | 00:00:00 | 00:00:00 | |
| LZ3DJ-16 | 2026-09-02 12:00:45 | 42.65832 | 23.65447 | 73° | 104km/h | 10792m | 7.8m/s | -46.5°C | 33.9% | 0hPa | 0V | 00:00:00 | 00:00:00 | 00:00:00 | |
| LZ3DJ-16 | 2026-09-02 12:00:24 | 42.65652 | 23.64798 | 70° | 97km/h | 10680m | 4.2m/s | -45.5°C | 24.0% | 0hPa | 0V | 00:00:00 | 00:00:00 | 00:00:00 | |
| LZ3DJ-16 | 2026-09-02 11:59:42 | 42.65330 | 23.63549 | 77° | 89km/h | 10434m | 3.8m/s | -43.7°C | 19.9% | 0hPa | 0V | 00:00:00 | 00:00:00 | 00:00:00 | |
| LZ3DJ-16 | 2026-09-02 11:59:21 | 42.65216 | 23.62962 | 75° | 80km/h | 10305m | 6.6m/s | -42.6°C | 18.1% | 0hPa | 0V | 00:00:00 | 00:00:00 | 00:00:00 | |
| LZ3DJ-16 | 2026-09-02 11:59:01 | 42.65123 | 23.62429 | 78° | 84km/h | 10182m | 6.5m/s | -41.6°C | 15.7% | 0hPa | 0V | 00:00:00 | 00:00:00 | 00:00:00 | |
| LZ3DJ-16 | 2026-09-02 11:58:41 | 42.65048 | 23.61866 | 82° | 82km/h | 10062m | 6.4m/s | -40.6°C | 15.6% | 0hPa | 0V | 00:00:00 | 00:00:00 | 00:00:00 | |
| LZ3DJ-16 | 2026-09-02 11:58:20 | 42.64960 | 23.61309 | 80° | 80km/h | 9948m | 5.8m/s | -39.6°C | 16.2% | 0hPa | 0V | 00:00:00 | 00:00:00 | 00:00:00 | |
| LZ3DJ-16 | 2026-09-02 11:57:59 | 42.64904 | 23.60774 | 78° | 69km/h | 9825m | 3.9m/s | -38.6°C | 16.1% | 0hPa | 0V | 00:00:00 | 00:00:00 | 00:00:00 | |
| LZ3DJ-16 | 2026-09-02 11:57:38 | 42.64899 | 23.60248 | 91° | 75km/h | 9684m | 5.4m/s | -37.6°C | 17.9% | 0hPa | 0V | 00:00:00 | 00:00:00 | 00:00:00 | |
| LZ3DJ-16 | 2026-09-02 11:57:18 | 42.64921 | 23.59725 | 96° | 77km/h | 9575m | 4.7m/s | -36.9°C | 19.7% | 0hPa | 0V | 00:00:00 | 00:00:00 | 00:00:00 | |
| LZ3DJ-16 | 2026-09-02 11:56:57 | 42.64955 | 23.59201 | 94° | 75km/h | 9454m | 3.3m/s | -36.0°C | 21.7% | 0hPa | 0V | 00:00:00 | 00:00:00 | 00:00:00 | |
| LZ3DJ-16 | 2026-09-02 11:56:35 | 42.64981 | 23.58696 | 94° | 69km/h | 9343m | 6.9m/s | -35.4°C | 21.1% | 0hPa | 0V | 00:00:00 | 00:00:00 | 00:00:00 | |
| LZ3DJ-16 | 2026-09-02 11:55:54 | 42.65043 | 23.57709 | 94° | 73km/h | 9093m | 5.3m/s | -33.1°C | 22.1% | 0hPa | 0V | 00:00:00 | 00:00:00 | 00:00:00 | |
| LZ3DJ-16 | 2026-09-02 11:55:33 | 42.65050 | 23.57173 | 88° | 73km/h | 8975m | 5.6m/s | -32.2°C | 22.7% | 0hPa | 0V | 00:00:00 | 00:00:00 | 00:00:00 | |
| LZ3DJ-16 | 2026-09-02 11:55:12 | 42.65061 | 23.56657 | 91° | 77km/h | 8875m | 6.8m/s | -31.5°C | 24.0% | 0hPa | 0V | 00:00:00 | 00:00:00 | 00:00:00 | |
| LZ3DJ-16 | 2026-09-02 11:54:51 | 42.65058 | 23.56125 | 89° | 77km/h | 8752m | 6.9m/s | -30.8°C | 35.6% | 0hPa | 0V | 00:00:00 | 00:00:00 | 00:00:00 | |
| LZ3DJ-16 | 2026-09-02 11:54:31 | 42.65047 | 23.55618 | 92° | 71km/h | 8638m | 5.1m/s | -30.0°C | 41.3% | 0hPa | 0V | 00:00:00 | 00:00:00 | 00:00:00 | |
| LZ3DJ-16 | 2026-09-02 11:54:10 | 42.65038 | 23.55067 | 94° | 73km/h | 8518m | 5.8m/s | -29.0°C | 39.9% | 0hPa | 0V | 00:00:00 | 00:00:00 | 00:00:00 | |
| LZ3DJ-16 | 2026-09-02 11:53:49 | 42.65024 | 23.54513 | 88° | 78km/h | 8405m | 5.4m/s | -28.0°C | 35.9% | 0hPa | 0V | 00:00:00 | 00:00:00 | 00:00:00 | |
| LZ3DJ-16 | 2026-09-02 11:53:29 | 42.65003 | 23.54003 | 87° | 69km/h | 8290m | 6.1m/s | -26.9°C | 36.9% | 0hPa | 0V | 00:00:00 | 00:00:00 | 00:00:00 | |
| LZ3DJ-16 | 2026-09-02 11:53:08 | 42.64988 | 23.53485 | 96° | 64km/h | 8162m | 7.6m/s | -25.8°C | 35.0% | 0hPa | 0V | 00:00:00 | 00:00:00 | 00:00:00 | |
| LZ3DJ-16 | 2026-09-02 11:52:47 | 42.64983 | 23.52988 | 90° | 66km/h | 8031m | 7.3m/s | -24.7°C | 31.3% | 0hPa | 0V | 00:00:00 | 00:00:00 | 00:00:00 | |
| LZ3DJ-16 | 2026-09-02 11:52:26 | 42.64948 | 23.52515 | 84° | 66km/h | 7913m | 6.8m/s | -23.6°C | 30.1% | 0hPa | 0V | 00:00:00 | 00:00:00 | 00:00:00 | |
| LZ3DJ-16 | 2026-09-02 11:52:06 | 42.64945 | 23.52040 | 93° | 62km/h | 7805m | 6.1m/s | -22.6°C | 28.0% | 0hPa | 0V | 00:00:00 | 00:00:00 | 00:00:00 | |
| LZ3DJ-16 | 2026-09-02 11:51:45 | 42.64935 | 23.51562 | 90° | 68km/h | 7689m | 7.0m/s | -22.0°C | 32.0% | 0hPa | 0V | 00:00:00 | 00:00:00 | 00:00:00 | |
| LZ3DJ-16 | 2026-09-02 11:51:24 | 42.64907 | 23.51072 | 84° | 68km/h | 7571m | 3.9m/s | -21.1°C | 14.9% | 0hPa | 0V | 00:00:00 | 00:00:00 | 00:00:00 | |
| LZ3DJ-16 | 2026-09-02 11:51:03 | 42.64872 | 23.50568 | 82° | 82km/h | 7445m | 4.9m/s | -20.4°C | 12.6% | 0hPa | 0V | 00:00:00 | 00:00:00 | 00:00:00 | |
| LZ3DJ-16 | 2026-09-02 11:50:43 | 42.64809 | 23.50081 | 76° | 64km/h | 7321m | 8.9m/s | -19.9°C | 18.7% | 0hPa | 0V | 00:00:00 | 00:00:00 | 00:00:00 | |
| LZ3DJ-16 | 2026-09-02 11:50:22 | 42.64769 | 23.49572 | 80° | 71km/h | 7183m | 7.5m/s | -18.6°C | 18.7% | 0hPa | 0V | 00:00:00 | 00:00:00 | 00:00:00 | |
| LZ3DJ-16 | 2026-09-02 11:50:02 | 42.64703 | 23.49089 | 73° | 71km/h | 7060m | 6.8m/s | -17.5°C | 17.6% | 0hPa | 0V | 00:00:00 | 00:00:00 | 00:00:00 | |
| LZ3DJ-16 | 2026-09-02 11:49:42 | 42.64643 | 23.48588 | 80° | 71km/h | 6929m | 7.2m/s | -16.3°C | 15.6% | 0hPa | 0V | 00:00:00 | 00:00:00 | 00:00:00 | |
| LZ3DJ-16 | 2026-09-02 11:49:21 | 42.64605 | 23.48058 | 85° | 80km/h | 6801m | 7.3m/s | -15.2°C | 13.7% | 0hPa | 0V | 00:00:00 | 00:00:00 | 00:00:00 | |
| LZ3DJ-16 | 2026-09-02 11:49:01 | 42.64558 | 23.47575 | 89° | 60km/h | 6685m | 5.0m/s | -14.4°C | 14.4% | 0hPa | 0V | 00:00:00 | 00:00:00 | 00:00:00 | |
| LZ4TU-5 | 2026-09-02 11:48:49 | 42.64520 | 23.47292 | 75° | 62km/h | 6611m | 6.2m/s | -14.4°C | 0% | 0hPa | 0V | 00:00:00 | 00:00:00 | 00:00:00 | |
| LZ4TU-5 | 2026-09-02 11:48:44 | 42.64506 | 23.47198 | 80° | 57km/h | 6578m | 6.6m/s | -14.1°C | 0% | 0hPa | 0V | 00:00:00 | 00:00:00 | 00:00:00 | |
| LZ3DJ-16 | 2026-09-02 11:48:40 | 42.64496 | 23.47110 | 85° | 75km/h | 6558m | 4.2m/s | -14.0°C | 22.0% | 0hPa | 0V | 00:00:00 | 00:00:00 | 00:00:00 | |
| LZ3DJ-16 | 2026-09-02 11:48:19 | 42.64448 | 23.46636 | 90° | 60km/h | 6435m | 4.3m/s | -13.0°C | 12.4% | 0hPa | 0V | 00:00:00 | 00:00:00 | 00:00:00 | |
| LZ3DJ-16 | 2026-09-02 11:47:58 | 42.64409 | 23.46203 | 83° | 58km/h | 6311m | 5.7m/s | -12.5°C | 15.7% | 0hPa | 0V | 00:00:00 | 00:00:00 | 00:00:00 | |
| LZ3DJ-16 | 2026-09-02 11:47:38 | 42.64384 | 23.45831 | 79° | 62km/h | 6206m | 6.5m/s | -11.9°C | 14.4% | 0hPa | 0V | 00:00:00 | 00:00:00 | 00:00:00 | |
| LZ3DJ-16 | 2026-09-02 11:47:17 | 42.64376 | 23.45482 | 98° | 51km/h | 6078m | 7.5m/s | -11.6°C | 31.9% | 0hPa | 0V | 00:00:00 | 00:00:00 | 00:00:00 | |
| LZ3DJ-16 | 2026-09-02 11:46:57 | 42.64399 | 23.45152 | 84° | 49km/h | 5951m | 4.2m/s | -10.7°C | 33.6% | 0hPa | 0V | 00:00:00 | 00:00:00 | 00:00:00 | |
| LZ3DJ-16 | 2026-09-02 11:46:36 | 42.64413 | 23.44837 | 92° | 49km/h | 5824m | 7.8m/s | -9.9°C | 38.2% | 0hPa | 0V | 00:00:00 | 00:00:00 | 00:00:00 | |
| LZ3DJ-16 | 2026-09-02 11:46:16 | 42.64408 | 23.44525 | 102° | 40km/h | 5699m | 5.2m/s | -8.8°C | 36.5% | 0hPa | 0V | 00:00:00 | 00:00:00 | 00:00:00 | |
| LZ3DJ-16 | 2026-09-02 11:45:55 | 42.64445 | 23.44270 | 95° | 33km/h | 5578m | 5.6m/s | -7.8°C | 32.3% | 0hPa | 0V | 00:00:00 | 00:00:00 | 00:00:00 | |
| LZ3DJ-16 | 2026-09-02 11:45:34 | 42.64456 | 23.43996 | 95° | 42km/h | 5456m | 6.5m/s | -6.9°C | 36.1% | 0hPa | 0V | 00:00:00 | 00:00:00 | 00:00:00 | |
| LZ3DJ-16 | 2026-09-02 11:45:13 | 42.64494 | 23.43715 | 108° | 31km/h | 5344m | 8.1m/s | -6.0°C | 35.2% | 0hPa | 0V | 00:00:00 | 00:00:00 | 00:00:00 | |
| LZ4TU-5 | 2026-09-02 11:44:57 | 42.64503 | 23.43522 | 88° | 24km/h | 5244m | 4.5m/s | -5.3°C | 0% | 0hPa | 0V | 00:00:00 | 00:00:00 | 00:00:00 | |
| LZ3DJ-16 | 2026-09-02 11:44:52 | 42.64516 | 23.43468 | 122° | 42km/h | 5219m | 6.8m/s | -5.2°C | 32.8% | 0hPa | 0V | 00:00:00 | 00:00:00 | 00:00:00 | |
| LZ3DJ-16 | 2026-09-02 11:44:31 | 42.64585 | 23.43198 | 97° | 37km/h | 5081m | 5.4m/s | -4.0°C | 22.2% | 0hPa | 0V | 00:00:00 | 00:00:00 | 00:00:00 | |
| LZ3DJ-16 | 2026-09-02 11:44:11 | 42.64617 | 23.42971 | 119° | 42km/h | 4953m | 6.1m/s | -2.9°C | 12.3% | 0hPa | 0V | 00:00:00 | 00:00:00 | 00:00:00 | |
| LZ3DJ-16 | 2026-09-02 11:43:50 | 42.64692 | 23.42740 | 112° | 42km/h | 4834m | 4.7m/s | -2.3°C | 9.8% | 0hPa | 0V | 00:00:00 | 00:00:00 | 00:00:00 | |
| LZ3DJ-16 | 2026-09-02 11:43:30 | 42.64736 | 23.42500 | 106° | 38km/h | 4722m | 6.2m/s | -1.7°C | 5.1% | 0hPa | 0V | 00:00:00 | 00:00:00 | 00:00:00 | |
| LZ3DJ-16 | 2026-09-02 11:43:09 | 42.64797 | 23.42225 | 105° | 42km/h | 4592m | 3.6m/s | -0.8°C | 5.0% | 0hPa | 0V | 00:00:00 | 00:00:00 | 00:00:00 | |
| LZ3DJ-16 | 2026-09-02 11:42:49 | 42.64852 | 23.41975 | 125° | 44km/h | 4492m | 7.6m/s | -0.5°C | 3.2% | 0hPa | 0V | 00:00:00 | 00:00:00 | 00:00:00 | |
| LZ3DJ-16 | 2026-09-02 11:42:28 | 42.64868 | 23.41731 | 95° | 38km/h | 4371m | 5.3m/s | -0.6°C | 5.7% | 0hPa | 0V | 00:00:00 | 00:00:00 | 00:00:00 | |
| LZ3DJ-16 | 2026-09-02 11:42:07 | 42.64898 | 23.41485 | 100° | 38km/h | 4258m | 6.9m/s | -0.3°C | 5.0% | 0hPa | 0V | 00:00:00 | 00:00:00 | 00:00:00 | |
| LZ3DJ-16 | 2026-09-02 11:41:47 | 42.64933 | 23.41260 | 90° | 38km/h | 4153m | 6.8m/s | -1.0°C | 25.8% | 0hPa | 0V | 00:00:00 | 00:00:00 | 00:00:00 | |
| LZ3DJ-16 | 2026-09-02 11:41:27 | 42.64927 | 23.41040 | 103° | 37km/h | 4040m | 5.8m/s | -1.2°C | 70.2% | 0hPa | 0V | 00:00:00 | 00:00:00 | 00:00:00 | |
| LZ3DJ-16 | 2026-09-02 11:41:06 | 42.64931 | 23.40802 | 75° | 33km/h | 3925m | 5.7m/s | -0.2°C | 79.0% | 0hPa | 0V | 00:00:00 | 00:00:00 | 00:00:00 | |
| LZ3DJ-16 | 2026-09-02 11:40:45 | 42.64903 | 23.40547 | 94° | 38km/h | 3810m | 6.1m/s | 0.9°C | 80.1% | 0hPa | 0V | 00:00:00 | 00:00:00 | 00:00:00 | |
| LZ3DJ-16 | 2026-09-02 11:40:25 | 42.64878 | 23.40337 | 77° | 27km/h | 3695m | 5.6m/s | 1.9°C | 76.4% | 0hPa | 0V | 00:00:00 | 00:00:00 | 00:00:00 | |
| LZ3DJ-16 | 2026-09-02 11:40:05 | 42.64877 | 23.40128 | 88° | 26km/h | 3583m | 6.5m/s | 2.9°C | 66.0% | 0hPa | 0V | 00:00:00 | 00:00:00 | 00:00:00 | |
| LZ3DJ-16 | 2026-09-02 11:39:45 | 42.64867 | 23.39900 | 70° | 29km/h | 3464m | 4.5m/s | 4.0°C | 59.7% | 0hPa | 0V | 00:00:00 | 00:00:00 | 00:00:00 | |
| LZ3DJ-16 | 2026-09-02 11:39:24 | 42.64867 | 23.39719 | 99° | 27km/h | 3349m | 5.3m/s | 5.1°C | 59.3% | 0hPa | 0V | 00:00:00 | 00:00:00 | 00:00:00 | |
| LZ3DJ-16 | 2026-09-02 11:39:04 | 42.64855 | 23.39541 | 81° | 24km/h | 3211m | 6.7m/s | 6.3°C | 58.8% | 0hPa | 0V | 00:00:00 | 00:00:00 | 00:00:00 | |
| LZ3DJ-16 | 2026-09-02 11:38:44 | 42.64860 | 23.39357 | 88° | 18km/h | 3096m | 6.6m/s | 7.1°C | 66.5% | 0hPa | 0V | 00:00:00 | 00:00:00 | 00:00:00 | |
| LZ3DJ-16 | 2026-09-02 11:38:25 | 42.64863 | 23.39195 | 95° | 29km/h | 2985m | 4.3m/s | 7.8°C | 81.2% | 0hPa | 0V | 00:00:00 | 00:00:00 | 00:00:00 | |
| LZ3DJ-16 | 2026-09-02 11:38:03 | 42.64873 | 23.39050 | 89° | 16km/h | 2858m | 4.9m/s | 9.0°C | 74.5% | 0hPa | 0V | 00:00:00 | 00:00:00 | 00:00:00 | |
| LZ3DJ-16 | 2026-09-02 11:37:43 | 42.64901 | 23.38949 | 74° | 18km/h | 2744m | 5.7m/s | 10.1°C | 68.1% | 0hPa | 0V | 00:00:00 | 00:00:00 | 00:00:00 | |
| LZ3DJ-16 | 2026-09-02 11:37:23 | 42.64908 | 23.38868 | 111° | 20km/h | 2642m | 5.8m/s | 11.1°C | 58.8% | 0hPa | 0V | 00:00:00 | 00:00:00 | 00:00:00 | |
| LZ3DJ-16 | 2026-09-02 11:37:02 | 42.64921 | 23.38807 | 116° | 7km/h | 2535m | 5.0m/s | 12.2°C | 43.6% | 0hPa | 0V | 00:00:00 | 00:00:00 | 00:00:00 | |
| LZ3DJ-16 | 2026-09-02 11:36:42 | 42.64920 | 23.38740 | 39° | 7km/h | 2438m | 4.7m/s | 13.0°C | 40.8% | 0hPa | 0V | 00:00:00 | 00:00:00 | 00:00:00 | |
| LZ3DJ-16 | 2026-09-02 11:36:22 | 42.64919 | 23.38672 | 0° | 0km/h | 2340m | 5.3m/s | 13.6°C | 43.8% | 0hPa | 0V | 00:00:00 | 00:00:00 | 00:00:00 | |
| LZ3DJ-16 | 2026-09-02 11:36:01 | 42.64938 | 23.38648 | 125° | 5km/h | 2241m | 4.1m/s | 14.2°C | 44.2% | 0hPa | 0V | 00:00:00 | 00:00:00 | 00:00:00 | |
| LZ3DJ-16 | 2026-09-02 11:35:40 | 42.64968 | 23.38614 | 112° | 16km/h | 2132m | 4.8m/s | 15.1°C | 34.8% | 0hPa | 0V | 00:00:00 | 00:00:00 | 00:00:00 | |
| LZ3DJ-16 | 2026-09-02 11:35:19 | 42.64996 | 23.38597 | 99° | 4km/h | 2029m | 5.9m/s | 15.9°C | 37.8% | 0hPa | 0V | 00:00:00 | 00:00:00 | 00:00:00 | |
| LZ3DJ-16 | 2026-09-02 11:34:58 | 42.65034 | 23.38616 | 141° | 5km/h | 1914m | 4.6m/s | 16.8°C | 41.6% | 0hPa | 0V | 00:00:00 | 00:00:00 | 00:00:00 | |
| LZ3DJ-16 | 2026-09-02 11:34:37 | 42.65052 | 23.38583 | 140° | 5km/h | 1809m | 3.2m/s | 17.6°C | 49.9% | 0hPa | 0V | 00:00:00 | 00:00:00 | 00:00:00 | |
| LZ3DJ-16 | 2026-09-02 11:34:16 | 42.65078 | 23.38579 | 216° | 13km/h | 1703m | 4.8m/s | 18.7°C | 45.1% | 0hPa | 0V | 00:00:00 | 00:00:00 | 00:00:00 | |
| LZ3DJ-16 | 2026-09-02 11:33:55 | 42.65109 | 23.38545 | 173° | 16km/h | 1605m | 3.2m/s | 19.6°C | 40.4% | 0hPa | 0V | 00:00:00 | 00:00:00 | 00:00:00 | |
| LZ3DJ-16 | 2026-09-02 11:32:53 | 42.65208 | 23.38491 | 177° | 15km/h | 1330m | 3.8m/s | 21.8°C | 49.5% | 0hPa | 0V | 00:00:00 | 00:00:00 | 00:00:00 | |
| LZ3DJ-16 | 2026-09-02 11:32:32 | 42.65249 | 23.38494 | 0° | 0km/h | 1251m | 4.2m/s | 22.7°C | 46.2% | 0hPa | 0V | 00:00:00 | 00:00:00 | 00:00:00 | |
| LZ3DJ-16 | 2026-09-02 11:32:12 | 42.65295 | 23.38508 | 300° | 7km/h | 1156m | 6.0m/s | 23.6°C | 0% | 0hPa | 0V | 00:00:00 | 00:00:00 | 00:00:00 | |
| LZ3DJ-16 | 2026-09-02 11:31:52 | 42.65318 | 23.38479 | 206° | 11km/h | 1027m | 7.1m/s | 0°C | 0% | 0hPa | 0V | 00:00:00 | 00:00:00 | 00:00:00 | |
| LZ3DJ-16 | 2026-09-02 11:31:28 | 42.65345 | 23.38430 | 147° | 20km/h | 897m | 4.1m/s | 0°C | 0% | 0hPa | 0V | 00:00:00 | 00:00:00 | 00:00:00 | |
| LZ3DJ-16 | 2026-09-02 11:31:07 | 42.65385 | 23.38368 | 3° | 15km/h | 799m | 4.9m/s | 0°C | 0% | 0hPa | 0V | 00:00:00 | 00:00:00 | 00:00:00 | |
| LZ3DJ-16 | 2026-09-02 11:30:47 | 42.65397 | 23.38325 | 321° | 13km/h | 703m | 7.7m/s | 0°C | 0% | 0hPa | 0V | 00:00:00 | 00:00:00 | 00:00:00 |